首页
METAR-TAF:

METAR-TAF

机场 :

費耶特維爾, 北卡罗来纳州, 美国

纬度: 34-59-22N, 经度: 078-52-48W, 海拔: 57米

当前天气观测

该预报发布于12分钟前的08:53 UTC
风速4节,风向东北
温度 6°C
湿度 87%
气压 1020 hPa
能見度: 8.0公里
多云层高于3300英尺
轻雾

METAR: KFAY 190853Z 05004KT 5SM BR BKN033 06/04 A3011 RMK AO2 SLP190 T00560044 58009

时间: 04:05 (09:05 UTC)

预报

该预报发布于3小时和34分钟前的05:31 UTC
预报有效从19日的 06点(UTC)到 20日的 06点(UTC)
风速节,风向
能見度: 2.4公里
多云层高于3500英尺
轻雾
短暂存在
从 19日的 06点(UTC)到 19日的 08点(UTC)
能見度: 2.4公里
层高于200英尺
从 19日的 0800点(UTC)
风速2节,风向东北
能見度: 10公里
阴天层高于2500英尺
从 19日的 1000点(UTC)
风速2节,风向东转东北
能見度: 10公里
阴天层高于3500英尺
从 19日的 1600点(UTC)
风速5节,风向东南
能見度: 10公里
阴天层高于1500英尺
小雨
从 19日的 1700点(UTC)
风速5节,风向东南
能見度: 1.6公里
阴天层高于1500英尺
小雨, 轻雾
从 19日的 1900点(UTC)
风速6节,风向东南
能見度: 10公里
多云层高于2500英尺
从 19日的 2100点(UTC)
风速8节,风向南转南东
能見度: 10公里
多云层高于5000英尺
从 20日的 0100点(UTC)
风速11节,风向,有时为21节阵风
能見度: 1.6公里
散云层高于3000英尺
阴天层高于9000英尺
小阵雨, 轻雾

TAF: KFAY 190531Z 1906/2006 00000KT 1 1/2SM BR BKN035 TEMPO 1906/1908 1/2SM FG VV002 FM190800 05002KT P6SM OVC025 FM191000 06002KT P6SM OVC035 FM191600 13005KT P6SM -RA OVC015 FM191700 13005KT 5SM -RA BR OVC015 FM191900 14006KT P6SM BKN025 FM192100 16008KT P6SM BKN050 FM200100 18011G21KT 3SM -SHRA BR SCT030 OVC090 WS020/19040KT

超过4000个机场的气象观测和天气预报(METAR&TAF报告)。

可查询的气象台以黄色和红色小点在地图上表示。

将鼠标移到小点上方,可查看气象台名称。

然后点击查看天气观测和预报。

如需切换地图:点击带黑十字的绿色按钮放大地图;点击带横线的绿色按钮缩小地图;或者点击绿色箭头查看邻近地区的地图。


METAR-TAF: